createdAt,value
2017-02-14T00:00:10.009Z,1033.9
2017-02-14T00:01:12.810Z,1033.8
2017-02-14T00:02:14.929Z,1033.8
2017-02-14T00:03:17.397Z,1033.8
2017-02-14T00:04:19.874Z,1033.9
2017-02-14T00:05:22.326Z,1033.9
2017-02-14T00:06:24.780Z,1033.9
2017-02-14T00:07:27.296Z,1033.9
2017-02-14T00:08:29.769Z,1033.9
2017-02-14T00:09:32.557Z,1033.9
2017-02-14T00:10:35.005Z,1033.9
2017-02-14T00:11:37.462Z,1033.9
2017-02-14T00:12:39.913Z,1033.8
2017-02-14T00:13:42.220Z,1033.8
2017-02-14T00:14:44.520Z,1033.8
2017-02-14T00:15:46.977Z,1033.9
2017-02-14T00:16:49.441Z,1033.9
2017-02-14T00:17:51.902Z,1033.9
2017-02-14T00:18:54.360Z,1033.9
2017-02-14T00:19:56.823Z,1033.9
2017-02-14T00:20:59.287Z,1033.8
2017-02-14T00:22:01.745Z,1033.8
2017-02-14T00:23:04.544Z,1033.8
2017-02-14T00:24:07.021Z,1033.8
2017-02-14T00:25:09.312Z,1033.8
2017-02-14T00:26:11.932Z,1033.8
2017-02-14T00:27:13.894Z,1033.9
2017-02-14T00:28:16.354Z,1033.8
2017-02-14T00:29:18.811Z,1033.9
2017-02-14T00:31:24.211Z,1033.9
2017-02-14T00:32:26.588Z,1033.9
2017-02-14T00:33:29.041Z,1033.9
2017-02-14T00:34:31.518Z,1033.9
2017-02-14T00:35:33.975Z,1033.9
2017-02-14T00:36:36.431Z,1033.9
2017-02-14T00:37:38.892Z,1033.8
2017-02-14T00:38:41.355Z,1033.8
2017-02-14T00:39:43.812Z,1033.9
2017-02-14T00:40:46.267Z,1033.9
2017-02-14T00:41:48.747Z,1033.9
2017-02-14T00:42:51.215Z,1033.9
2017-02-14T00:43:53.666Z,1033.8
2017-02-14T00:44:56.119Z,1033.9
2017-02-14T00:45:58.589Z,1033.8
2017-02-14T00:47:00.558Z,1033.8
2017-02-14T00:48:03.018Z,1033.8
2017-02-14T00:49:05.486Z,1033.8
2017-02-14T00:50:07.935Z,1033.8
2017-02-14T00:51:10.411Z,1033.8
2017-02-14T00:52:12.882Z,1033.7
2017-02-14T00:54:17.998Z,1033.7
2017-02-14T00:55:20.461Z,1033.6
2017-02-14T00:56:22.942Z,1033.7
2017-02-14T00:57:25.413Z,1033.7
2017-02-14T00:58:27.880Z,1033.7
2017-02-14T00:59:30.350Z,1033.7
2017-02-14T01:00:32.801Z,1033.7
2017-02-14T01:01:35.255Z,1033.7
2017-02-14T01:02:37.735Z,1033.6
2017-02-14T01:03:40.229Z,1033.7
2017-02-14T01:04:42.709Z,1033.7
2017-02-14T01:06:47.564Z,1033.7
2017-02-14T01:07:50.019Z,1033.8
2017-02-14T01:08:52.477Z,1033.8
2017-02-14T01:09:54.945Z,1033.7
2017-02-14T01:10:57.420Z,1033.7
2017-02-14T01:11:59.889Z,1033.7
2017-02-14T01:13:02.366Z,1033.7
2017-02-14T01:15:07.243Z,1033.7
2017-02-14T01:16:09.723Z,1033.6
2017-02-14T01:17:12.021Z,1033.6
2017-02-14T01:18:14.483Z,1033.6
2017-02-14T01:19:16.981Z,1033.6
2017-02-14T01:20:19.444Z,1033.6
2017-02-14T01:21:21.891Z,1033.6
2017-02-14T01:22:24.367Z,1033.5
2017-02-14T01:23:26.819Z,1033.5
2017-02-14T01:25:31.703Z,1033.5
2017-02-14T01:26:34.155Z,1033.5
2017-02-14T01:27:36.632Z,1033.5
2017-02-14T01:28:39.095Z,1033.5
2017-02-14T01:30:43.725Z,1033.5
2017-02-14T01:31:46.184Z,1033.5
2017-02-14T01:32:48.646Z,1033.5
2017-02-14T01:33:51.119Z,1033.4
2017-02-14T01:34:53.588Z,1033.4
2017-02-14T01:35:55.880Z,1033.4
2017-02-14T01:36:58.340Z,1033.4
2017-02-14T01:38:00.798Z,1033.4
2017-02-14T01:39:03.256Z,1033.3
2017-02-14T01:40:05.707Z,1033.3
2017-02-14T01:41:08.495Z,1033.3
2017-02-14T01:42:10.971Z,1033.3
2017-02-14T01:43:13.434Z,1033.2
2017-02-14T01:44:15.892Z,1033.3
2017-02-14T01:45:18.215Z,1033.3
2017-02-14T01:46:20.672Z,1033.2
2017-02-14T01:47:23.148Z,1033.3
2017-02-14T01:48:25.637Z,1033.2
2017-02-14T01:50:30.528Z,1033.2
2017-02-14T01:51:32.976Z,1033.2
2017-02-14T01:52:35.424Z,1033.1
2017-02-14T01:53:37.890Z,1033.1
2017-02-14T01:54:40.377Z,1033.1
2017-02-14T01:58:50.042Z,1033.1
2017-02-14T01:59:52.510Z,1033.1
2017-02-14T02:00:54.975Z,1033.1
2017-02-14T02:01:57.451Z,1033.1
2017-02-14T02:02:59.903Z,1033
2017-02-14T02:04:02.367Z,1033.1
2017-02-14T02:05:04.824Z,1033.1
2017-02-14T02:06:07.277Z,1033
2017-02-14T02:07:09.729Z,1033.1
2017-02-14T02:08:12.185Z,1033.1
2017-02-14T02:09:14.332Z,1033.1
2017-02-14T02:10:16.790Z,1033.1
2017-02-14T02:11:19.581Z,1033.1
2017-02-14T02:12:22.034Z,1033.1
2017-02-14T02:13:24.488Z,1033.1
2017-02-14T02:14:26.475Z,1033.1
2017-02-14T02:15:29.281Z,1033
2017-02-14T02:16:31.733Z,1033.1
2017-02-14T02:17:33.851Z,1033.1
2017-02-14T02:18:36.315Z,1033.1
2017-02-14T02:19:38.792Z,1033.1
2017-02-14T02:20:41.269Z,1033
2017-02-14T02:21:43.731Z,1033.1
2017-02-14T02:22:46.217Z,1033
2017-02-14T02:23:48.693Z,1033.1
2017-02-14T02:24:50.981Z,1033.1
2017-02-14T02:25:53.443Z,1033.1
2017-02-14T02:26:55.921Z,1033
2017-02-14T02:27:58.374Z,1033.1
2017-02-14T02:29:00.830Z,1033.1
2017-02-14T02:30:03.287Z,1033.1
2017-02-14T02:31:05.916Z,1033.1
2017-02-14T02:32:08.371Z,1033.1
2017-02-14T02:34:13.244Z,1033
2017-02-14T02:36:18.096Z,1033.1
2017-02-14T02:37:20.552Z,1033.1
2017-02-14T02:38:23.018Z,1033
2017-02-14T02:39:25.509Z,1033.1
2017-02-14T02:40:27.978Z,1033.1
2017-02-14T02:41:30.445Z,1033.1
2017-02-14T02:42:32.913Z,1033.1
2017-02-14T02:43:35.371Z,1033.1
2017-02-14T02:44:37.834Z,1033.1
2017-02-14T02:45:40.297Z,1033.1
2017-02-14T02:46:42.755Z,1033.1
2017-02-14T02:47:45.070Z,1033
2017-02-14T02:48:47.535Z,1033
2017-02-14T02:49:50.048Z,1033.1
2017-02-14T02:50:52.503Z,1033.1
2017-02-14T02:52:57.361Z,1033.1
2017-02-14T02:53:59.822Z,1033.1
2017-02-14T02:55:02.313Z,1033.1
2017-02-14T02:56:04.767Z,1033.1
2017-02-14T02:57:06.748Z,1033.1
2017-02-14T02:58:09.203Z,1033.1
2017-02-14T02:59:11.667Z,1033.1
2017-02-14T03:00:14.179Z,1033.1
2017-02-14T03:02:19.035Z,1033.1
2017-02-14T03:03:21.483Z,1033.1
2017-02-14T03:04:23.936Z,1033.1
2017-02-14T03:05:26.387Z,1033.1
2017-02-14T03:06:29.034Z,1033.1
2017-02-14T03:07:31.334Z,1033.1
2017-02-14T03:08:33.790Z,1033.1
2017-02-14T03:09:36.249Z,1033.1
2017-02-14T03:10:38.706Z,1033.1
2017-02-14T03:11:41.183Z,1033.1
2017-02-14T03:12:43.643Z,1033.1
2017-02-14T03:13:45.945Z,1033.1
2017-02-14T03:14:48.407Z,1033.1
2017-02-14T03:15:50.935Z,1033
2017-02-14T03:17:55.798Z,1033.1
2017-02-14T03:18:58.295Z,1033
2017-02-14T03:20:00.751Z,1033
2017-02-14T03:21:03.215Z,1033.1
2017-02-14T03:22:05.694Z,1033
2017-02-14T03:23:08.019Z,1033.1
2017-02-14T03:24:10.314Z,1033.1
2017-02-14T03:26:15.186Z,1033.1
2017-02-14T03:27:17.666Z,1033
2017-02-14T03:28:20.119Z,1033.1
2017-02-14T03:29:22.581Z,1033.1
2017-02-14T03:30:25.397Z,1033.1
2017-02-14T03:35:37.522Z,1033.2
2017-02-14T03:36:40.002Z,1033.2
2017-02-14T03:37:42.473Z,1033.1
2017-02-14T03:38:44.830Z,1033.2
2017-02-14T03:39:47.321Z,1033.3
2017-02-14T03:40:49.774Z,1033.1
2017-02-14T03:41:52.255Z,1033.1
2017-02-14T03:42:54.547Z,1033.1
2017-02-14T03:43:57.006Z,1033.3
2017-02-14T03:44:59.459Z,1033.1
2017-02-14T03:46:01.918Z,1033.1
2017-02-14T03:47:04.206Z,1033.1
2017-02-14T03:48:06.706Z,1033.1
2017-02-14T03:49:09.002Z,1033.1
2017-02-14T03:50:11.458Z,1033.1
2017-02-14T03:51:13.931Z,1033.1
2017-02-14T03:52:16.398Z,1033.1
2017-02-14T03:54:21.264Z,1033
2017-02-14T03:55:23.625Z,1033.1
2017-02-14T03:56:26.083Z,1033.1
2017-02-14T03:57:28.547Z,1033
2017-02-14T03:58:31.003Z,1033.1
2017-02-14T03:59:33.456Z,1033.1
2017-02-14T04:01:38.322Z,1033
2017-02-14T04:02:40.619Z,1033
2017-02-14T04:03:43.076Z,1033
2017-02-14T04:04:45.563Z,1033
2017-02-14T04:05:48.053Z,1033
2017-02-14T04:06:50.542Z,1033
2017-02-14T04:07:53.000Z,1033
2017-02-14T04:08:55.304Z,1033
2017-02-14T04:09:57.765Z,1033
2017-02-14T04:11:00.221Z,1033
2017-02-14T04:12:02.674Z,1033
2017-02-14T04:13:05.147Z,1032.9
2017-02-14T04:14:07.621Z,1033
2017-02-14T04:15:10.098Z,1032.9
2017-02-14T04:16:12.567Z,1032.9
2017-02-14T04:17:15.019Z,1033
2017-02-14T04:18:17.479Z,1033
2017-02-14T04:19:19.947Z,1032.9
2017-02-14T04:20:22.417Z,1033
2017-02-14T04:22:27.111Z,1032.9
2017-02-14T04:23:29.571Z,1032.9
2017-02-14T04:24:32.028Z,1033.1
2017-02-14T04:25:34.518Z,1032.9
2017-02-14T04:26:37.021Z,1032.9
2017-02-14T04:27:39.480Z,1032.9
2017-02-14T04:28:41.940Z,1032.9
2017-02-14T04:29:44.237Z,1032.9
2017-02-14T04:30:46.699Z,1032.9
2017-02-14T04:32:51.590Z,1033
2017-02-14T04:33:54.049Z,1033
2017-02-14T04:34:56.506Z,1033
2017-02-14T04:35:58.965Z,1033
2017-02-14T04:37:01.423Z,1033
2017-02-14T04:38:03.895Z,1033
2017-02-14T04:39:06.374Z,1033.1
2017-02-14T04:40:08.367Z,1033.1
2017-02-14T04:41:11.175Z,1033.1
2017-02-14T04:42:13.481Z,1033.1
2017-02-14T04:44:18.176Z,1033
2017-02-14T04:45:20.639Z,1033
2017-02-14T04:46:23.103Z,1033.1
2017-02-14T04:47:25.577Z,1033.1
2017-02-14T04:48:28.035Z,1033.1
2017-02-14T04:49:30.495Z,1033.1
2017-02-14T04:50:32.953Z,1033.1
2017-02-14T04:51:35.239Z,1033.1
2017-02-14T04:52:37.694Z,1033.1
2017-02-14T04:53:40.203Z,1033.2
2017-02-14T04:54:42.674Z,1033.1
2017-02-14T04:55:45.164Z,1033.2
2017-02-14T04:56:47.620Z,1033.2
2017-02-14T04:57:50.077Z,1033.1
2017-02-14T04:58:52.539Z,1033.1
2017-02-14T04:59:55.014Z,1033.1
2017-02-14T05:01:59.885Z,1033.1
2017-02-14T05:04:04.770Z,1033.1
2017-02-14T05:05:07.104Z,1033.1
2017-02-14T05:06:09.398Z,1033.1
2017-02-14T05:07:11.868Z,1033.1
2017-02-14T05:08:14.159Z,1033.1
2017-02-14T05:10:19.039Z,1033.1
2017-02-14T05:11:21.519Z,1033.2
2017-02-14T05:12:23.994Z,1033.2
2017-02-14T05:13:26.496Z,1033.2
2017-02-14T05:14:28.966Z,1033.2
2017-02-14T05:15:31.435Z,1033.3
2017-02-14T05:16:33.910Z,1033.2
2017-02-14T05:17:36.374Z,1033.2
2017-02-14T05:18:38.843Z,1033.2
2017-02-14T05:20:43.728Z,1033.3
2017-02-14T05:21:46.190Z,1033.2
2017-02-14T05:22:48.655Z,1033.2
2017-02-14T05:23:51.108Z,1033.2
2017-02-14T05:24:53.563Z,1033.2
2017-02-14T05:25:56.026Z,1033.2
2017-02-14T05:26:58.005Z,1033.1
2017-02-14T05:28:00.460Z,1033.1
2017-02-14T05:31:08.070Z,1033.2
2017-02-14T05:34:15.183Z,1033.1
2017-02-14T05:35:17.650Z,1033.2
2017-02-14T05:40:29.726Z,1033.2
2017-02-14T05:41:32.190Z,1033.1
2017-02-14T05:42:34.669Z,1033.1
2017-02-14T05:43:37.125Z,1033.1
2017-02-14T05:44:39.573Z,1033.1
2017-02-14T05:45:42.032Z,1033.2
2017-02-14T05:46:44.491Z,1033.1
2017-02-14T05:47:46.963Z,1033.2
2017-02-14T05:48:49.416Z,1033.1
2017-02-14T05:49:51.715Z,1033.2
2017-02-14T05:50:54.188Z,1033.2
2017-02-14T05:51:56.644Z,1033.2
2017-02-14T05:52:59.097Z,1033.2
2017-02-14T05:54:01.611Z,1033.2
2017-02-14T05:55:04.073Z,1033.2
2017-02-14T05:56:06.556Z,1033.1
2017-02-14T05:57:08.851Z,1033.1
2017-02-14T05:58:11.353Z,1033.1
2017-02-14T05:59:13.657Z,1033.1
2017-02-14T06:00:16.035Z,1033.1
2017-02-14T06:01:18.341Z,1033.1
2017-02-14T06:02:20.792Z,1033.2
2017-02-14T06:03:23.257Z,1033.2
2017-02-14T06:04:25.733Z,1033.3
2017-02-14T06:05:28.194Z,1033.2
2017-02-14T06:06:30.646Z,1033.2
2017-02-14T06:07:33.111Z,1033.2
2017-02-14T06:08:35.731Z,1033.2
2017-02-14T06:09:38.223Z,1033.2
2017-02-14T06:10:40.193Z,1033.2
2017-02-14T06:11:42.686Z,1033.1
2017-02-14T06:12:45.149Z,1033.1
2017-02-14T06:13:47.618Z,1033.1
2017-02-14T06:14:50.074Z,1033.1
2017-02-14T06:15:52.528Z,1033.1
2017-02-14T06:16:55.018Z,1033.1
2017-02-14T06:17:57.475Z,1033.1
2017-02-14T06:18:59.944Z,1033.1
2017-02-14T06:20:02.425Z,1033.1
2017-02-14T06:21:04.715Z,1033.1
2017-02-14T06:22:07.353Z,1033.1
2017-02-14T06:23:09.636Z,1033.1
2017-02-14T06:27:19.305Z,1033.1
2017-02-14T06:28:21.779Z,1033.2
2017-02-14T06:29:24.242Z,1033.1
2017-02-14T06:30:26.693Z,1033.1
2017-02-14T06:42:55.799Z,1033.3
2017-02-14T06:43:58.256Z,1033.3
2017-02-14T06:45:00.716Z,1033.4
2017-02-14T06:46:03.207Z,1033.4
2017-02-14T06:48:08.087Z,1033.3
2017-02-14T06:49:10.553Z,1033.3
2017-02-14T06:50:12.865Z,1033.4
2017-02-14T06:51:15.328Z,1033.4
2017-02-14T06:52:17.631Z,1033.4
2017-02-14T06:53:20.094Z,1033.4
2017-02-14T06:54:22.547Z,1033.5
2017-02-14T06:55:25.002Z,1033.5
2017-02-14T06:57:29.696Z,1033.5
2017-02-14T06:58:32.176Z,1033.5
2017-02-14T06:59:34.629Z,1033.5
2017-02-14T07:00:37.098Z,1033.5
2017-02-14T07:11:01.239Z,1033.6
2017-02-14T07:12:03.716Z,1033.6
2017-02-14T07:14:08.582Z,1033.6
2017-02-14T07:15:11.042Z,1033.5
2017-02-14T07:16:13.519Z,1033.6
2017-02-14T07:17:15.968Z,1033.6
2017-02-14T07:18:18.462Z,1033.7
2017-02-14T07:19:20.932Z,1033.6
2017-02-14T07:20:23.398Z,1033.7
2017-02-14T07:21:25.872Z,1033.7
2017-02-14T07:23:30.799Z,1033.7
2017-02-14T07:24:33.271Z,1033.7
2017-02-14T07:25:35.555Z,1033.8
2017-02-14T07:26:38.053Z,1033.8
2017-02-14T07:27:40.522Z,1033.8
2017-02-14T07:28:42.983Z,1033.8
2017-02-14T07:30:47.847Z,1033.8
2017-02-14T07:31:50.309Z,1033.8
2017-02-14T07:32:52.784Z,1033.8
2017-02-14T07:33:55.246Z,1033.9
2017-02-14T07:34:57.709Z,1033.9
2017-02-14T07:36:00.173Z,1033.9
2017-02-14T07:37:02.515Z,1033.9
2017-02-14T07:38:04.998Z,1033.9
2017-02-14T07:40:09.868Z,1034
2017-02-14T07:41:12.352Z,1034
2017-02-14T07:42:14.809Z,1034
2017-02-14T07:43:17.277Z,1034
2017-02-14T07:44:19.739Z,1034
2017-02-14T07:45:22.219Z,1034.1
2017-02-14T07:46:24.696Z,1034.1
2017-02-14T07:47:27.144Z,1034.1
2017-02-14T07:48:29.170Z,1034.1
2017-02-14T07:49:31.639Z,1034.1
2017-02-14T07:50:34.097Z,1034.1
2017-02-14T07:51:36.552Z,1034.1
2017-02-14T07:52:39.022Z,1034.1
2017-02-14T07:53:41.489Z,1034.1
2017-02-14T07:54:44.296Z,1034.1
2017-02-14T07:55:46.251Z,1034.1
2017-02-14T07:56:48.720Z,1034.1
2017-02-14T07:57:51.192Z,1034.1
2017-02-14T07:58:53.989Z,1034.1
2017-02-14T07:59:56.444Z,1034.1
2017-02-14T08:00:58.917Z,1034.1
2017-02-14T08:02:01.376Z,1034.1
2017-02-14T08:03:03.846Z,1034.1
2017-02-14T08:04:06.305Z,1034.2
2017-02-14T08:05:08.601Z,1034.2
2017-02-14T08:06:11.054Z,1034.2
2017-02-14T08:07:13.510Z,1034.2
2017-02-14T08:08:15.967Z,1034.2
2017-02-14T08:09:18.463Z,1034.2
2017-02-14T08:10:20.914Z,1034.2
2017-02-14T08:12:25.787Z,1034.2
2017-02-14T08:14:30.652Z,1034.2
2017-02-14T08:15:33.116Z,1034.2
2017-02-14T08:16:35.580Z,1034.4
2017-02-14T08:17:38.045Z,1034.2
2017-02-14T08:18:40.505Z,1034.2
2017-02-14T08:19:42.966Z,1034.2
2017-02-14T08:20:45.419Z,1034.4
2017-02-14T08:21:47.912Z,1034.2
2017-02-14T08:22:50.375Z,1034.2
2017-02-14T08:23:52.844Z,1034.4
2017-02-14T08:24:55.161Z,1034.4
2017-02-14T08:25:57.622Z,1034.4
2017-02-14T08:28:02.382Z,1034.4
2017-02-14T08:29:04.862Z,1034.4
2017-02-14T08:30:07.663Z,1034.2
2017-02-14T08:31:10.122Z,1034.4
2017-02-14T08:33:14.893Z,1034.4
2017-02-14T08:34:17.350Z,1034.4
2017-02-14T08:35:19.804Z,1034.4
2017-02-14T08:36:22.267Z,1034.4
2017-02-14T08:37:24.745Z,1034.5
2017-02-14T08:38:27.198Z,1034.5
2017-02-14T08:39:29.492Z,1034.4
2017-02-14T08:40:31.965Z,1034.5
2017-02-14T08:41:34.423Z,1034.4
2017-02-14T08:43:39.290Z,1034.5
2017-02-14T08:44:41.752Z,1034.4
2017-02-14T08:45:44.378Z,1034.5
2017-02-14T08:46:46.829Z,1034.6
2017-02-14T08:47:49.313Z,1034.5
2017-02-14T08:48:51.775Z,1034.5
2017-02-14T08:49:54.109Z,1034.5
2017-02-14T08:50:56.416Z,1034.5
2017-02-14T08:51:58.871Z,1034.6
2017-02-14T08:53:01.677Z,1034.4
2017-02-14T08:54:04.150Z,1034.5
2017-02-14T08:55:06.433Z,1034.5
2017-02-14T08:56:08.890Z,1034.6
2017-02-14T08:57:11.358Z,1034.5
2017-02-14T08:58:13.988Z,1034.5
2017-02-14T08:59:16.445Z,1034.5
2017-02-14T09:00:18.732Z,1034.5
2017-02-14T09:01:21.201Z,1034.5
2017-02-14T09:02:23.672Z,1034.5
2017-02-14T09:03:26.129Z,1034.5
2017-02-14T09:04:28.594Z,1034.6
2017-02-14T09:05:31.071Z,1034.5
2017-02-14T09:06:33.531Z,1034.5
2017-02-14T09:08:38.397Z,1034.4
2017-02-14T09:09:40.891Z,1034.5
2017-02-14T09:10:43.356Z,1034.5
2017-02-14T09:11:45.857Z,1034.4
2017-02-14T09:12:48.319Z,1034.4
2017-02-14T09:13:50.775Z,1034.4
2017-02-14T09:14:53.235Z,1034.5
2017-02-14T09:16:58.109Z,1034.5
2017-02-14T09:18:00.576Z,1034.4
2017-02-14T09:19:03.061Z,1034.5
2017-02-14T09:20:05.534Z,1034.5
2017-02-14T09:22:10.228Z,1034.5
2017-02-14T09:23:12.680Z,1034.4
2017-02-14T09:24:15.137Z,1034.5
2017-02-14T09:25:17.598Z,1034.5
2017-02-14T09:26:20.067Z,1034.5
2017-02-14T09:27:22.520Z,1034.6
2017-02-14T09:28:24.984Z,1034.6
2017-02-14T09:29:27.446Z,1034.6
2017-02-14T09:30:29.748Z,1034.6
2017-02-14T09:31:32.540Z,1034.6
2017-02-14T09:32:34.701Z,1034.6
2017-02-14T09:33:37.173Z,1034.6
2017-02-14T09:34:39.961Z,1034.6
2017-02-14T09:35:42.248Z,1034.7
2017-02-14T09:36:44.740Z,1034.6
2017-02-14T09:37:47.216Z,1034.7
2017-02-14T09:39:52.082Z,1034.6
2017-02-14T09:40:54.538Z,1034.6
2017-02-14T09:41:56.999Z,1034.6
2017-02-14T09:42:59.464Z,1034.6
2017-02-14T09:44:01.928Z,1034.7
2017-02-14T09:45:04.397Z,1034.7
2017-02-14T09:46:06.851Z,1034.7
2017-02-14T09:47:09.152Z,1034.7
2017-02-14T09:48:11.783Z,1034.6
2017-02-14T09:49:14.436Z,1034.7
2017-02-14T09:50:16.901Z,1034.7
2017-02-14T09:51:19.365Z,1034.7
2017-02-14T09:52:21.837Z,1034.7
2017-02-14T09:53:24.296Z,1034.7
2017-02-14T09:54:26.808Z,1034.7
2017-02-14T09:55:29.269Z,1034.7
2017-02-14T09:56:31.723Z,1034.7
2017-02-14T09:57:34.184Z,1034.8
2017-02-14T09:58:36.648Z,1034.7
2017-02-14T09:59:39.117Z,1034.8
2017-02-14T10:00:41.408Z,1034.7
2017-02-14T10:01:43.868Z,1034.7
2017-02-14T10:02:46.245Z,1034.7
2017-02-14T10:03:48.719Z,1034.7
2017-02-14T10:04:51.006Z,1034.8
2017-02-14T10:05:53.832Z,1034.7
2017-02-14T10:06:56.296Z,1034.8
2017-02-14T10:07:58.612Z,1034.8
2017-02-14T10:09:01.071Z,1034.8
2017-02-14T10:10:03.367Z,1034.8
2017-02-14T10:11:06.000Z,1034.8
2017-02-14T10:12:08.322Z,1034.7
2017-02-14T10:13:10.776Z,1034.7
2017-02-14T10:14:13.562Z,1034.7
2017-02-14T10:15:16.040Z,1034.8
2017-02-14T10:16:18.531Z,1034.8
2017-02-14T10:17:20.989Z,1034.8
2017-02-14T10:18:23.468Z,1034.8
2017-02-14T10:19:25.936Z,1034.7
2017-02-14T10:20:28.411Z,1034.8
2017-02-14T10:21:30.863Z,1034.8
2017-02-14T10:22:33.335Z,1034.8
2017-02-14T10:23:35.832Z,1034.8
2017-02-14T10:24:38.296Z,1034.8
2017-02-14T10:25:40.586Z,1034.8
2017-02-14T10:26:43.060Z,1034.8
2017-02-14T10:27:45.549Z,1034.9
2017-02-14T10:28:48.005Z,1034.8
2017-02-14T10:29:50.459Z,1034.8
2017-02-14T10:30:52.765Z,1034.8
2017-02-14T10:31:55.234Z,1034.9
2017-02-14T10:32:57.699Z,1034.8
2017-02-14T10:34:00.166Z,1034.9
2017-02-14T10:35:02.623Z,1034.9
2017-02-14T10:36:05.091Z,1034.9
2017-02-14T10:38:09.965Z,1034.8
2017-02-14T10:39:12.437Z,1034.9
2017-02-14T10:40:15.082Z,1034.8
2017-02-14T10:41:17.529Z,1034.7
2017-02-14T10:42:19.987Z,1034.7
2017-02-14T10:43:22.439Z,1034.6
2017-02-14T10:44:24.899Z,1034.6
2017-02-14T10:45:27.361Z,1034.6
2017-02-14T10:46:29.656Z,1034.5
2017-02-14T10:47:32.141Z,1034.5
2017-02-14T10:48:34.945Z,1034.5
2017-02-14T10:49:37.402Z,1034.5
2017-02-14T10:50:39.855Z,1034.4
2017-02-14T10:51:42.329Z,1034.4
2017-02-14T10:52:44.809Z,1034.4
2017-02-14T10:53:47.125Z,1034.4
2017-02-14T10:54:49.594Z,1034.4
2017-02-14T10:55:52.394Z,1034.4
2017-02-14T10:56:54.711Z,1034.4
2017-02-14T10:57:57.179Z,1034.4
2017-02-14T11:00:02.045Z,1034.4
2017-02-14T11:02:06.909Z,1034.4
2017-02-14T11:03:09.385Z,1034.4
2017-02-14T11:04:11.866Z,1034.4
2017-02-14T11:05:14.334Z,1034.4
2017-02-14T11:06:16.790Z,1034.4
2017-02-14T11:07:19.246Z,1034.4
2017-02-14T11:08:21.707Z,1034.4
2017-02-14T11:09:24.178Z,1034.4
2017-02-14T11:10:26.641Z,1034.4
2017-02-14T11:11:29.099Z,1034.4
2017-02-14T11:12:31.572Z,1034.2
2017-02-14T11:20:51.392Z,1034.1
2017-02-14T11:21:53.851Z,1034.1
2017-02-14T11:22:56.311Z,1034.1
2017-02-14T11:23:59.125Z,1034.1
2017-02-14T11:25:01.578Z,1034.1
2017-02-14T11:27:06.286Z,1034.1
2017-02-14T11:28:08.748Z,1034.1
2017-02-14T11:30:13.971Z,1034.2
2017-02-14T11:31:16.267Z,1034.2
2017-02-14T11:32:18.727Z,1034.2
2017-02-14T11:33:21.205Z,1034.2
2017-02-14T11:36:28.472Z,1034.1
2017-02-14T11:38:33.841Z,1034.2
2017-02-14T11:39:36.197Z,1034.2
2017-02-14T11:40:38.675Z,1034.2
2017-02-14T11:41:41.137Z,1034.2
2017-02-14T11:42:43.618Z,1034.1
2017-02-14T11:43:46.097Z,1034.1
2017-02-14T11:44:48.383Z,1034.1
2017-02-14T11:45:51.194Z,1034.1
2017-02-14T11:46:53.647Z,1034.1
2017-02-14T11:47:56.103Z,1034.1
2017-02-14T11:48:58.572Z,1034.2
2017-02-14T11:50:01.099Z,1034.2
2017-02-14T11:51:03.562Z,1034.2
2017-02-14T11:52:06.022Z,1034.2
2017-02-14T11:53:08.317Z,1034.2
2017-02-14T11:54:10.796Z,1034.1
2017-02-14T11:55:13.258Z,1034.2
2017-02-14T11:56:15.738Z,1034.1
2017-02-14T11:57:18.197Z,1034.1
2017-02-14T11:58:20.655Z,1034.2
2017-02-14T11:59:23.111Z,1034.2
2017-02-14T12:00:25.591Z,1034.2
2017-02-14T12:01:28.046Z,1034.4
2017-02-14T12:02:30.842Z,1034.4
2017-02-14T12:03:33.305Z,1034.4
2017-02-14T12:05:38.183Z,1034.4
2017-02-14T12:07:42.890Z,1034.4
2017-02-14T12:08:45.690Z,1034.4
2017-02-14T12:10:50.443Z,1034.4
2017-02-14T12:11:52.918Z,1034.4
2017-02-14T12:12:55.379Z,1034.4
2017-02-14T12:13:58.194Z,1034.4
2017-02-14T12:15:00.650Z,1034.4
2017-02-14T12:16:03.115Z,1034.4
2017-02-14T12:17:05.624Z,1034.2
2017-02-14T12:21:15.303Z,1034.4
2017-02-14T12:28:32.695Z,1034.4
2017-02-14T12:31:39.977Z,1034.4
2017-02-14T12:40:00.153Z,1034.4
2017-02-14T12:41:02.618Z,1034.4
2017-02-14T12:42:05.089Z,1034.4
2017-02-14T12:43:07.553Z,1034.4
2017-02-14T12:44:10.178Z,1034.4
2017-02-14T12:45:12.313Z,1034.4
2017-02-14T12:48:20.100Z,1034.4
2017-02-14T12:54:35.103Z,1034.2
2017-02-14T13:04:59.882Z,1034.2
2017-02-14T13:06:02.245Z,1034.2
2017-02-14T13:10:12.418Z,1034.2
2017-02-14T13:58:06.628Z,1034.2
2017-02-14T13:59:09.425Z,1034.4
2017-02-14T14:01:14.290Z,1034.4
2017-02-14T14:02:16.746Z,1034.4
2017-02-14T14:03:19.231Z,1034.4
2017-02-14T14:04:21.684Z,1034.4
2017-02-14T14:05:24.143Z,1034.4
2017-02-14T14:06:26.602Z,1034.4
2017-02-14T14:07:29.068Z,1034.4
2017-02-14T14:08:31.882Z,1034.4
2017-02-14T14:09:34.179Z,1034.4
2017-02-14T14:10:36.639Z,1034.4
2017-02-14T14:11:39.110Z,1034.4
2017-02-14T14:12:41.915Z,1034.4
2017-02-14T14:13:44.379Z,1034.4
2017-02-14T14:14:46.730Z,1034.4
2017-02-14T14:15:49.208Z,1034.4
2017-02-14T14:18:56.473Z,1034.4
2017-02-14T14:19:58.934Z,1034.4
2017-02-14T14:21:01.736Z,1034.5
2017-02-14T14:22:04.212Z,1034.5
2017-02-14T14:23:06.667Z,1034.5
2017-02-14T14:25:11.544Z,1034.4
2017-02-14T14:26:14.350Z,1034.4
2017-02-14T14:27:16.666Z,1034.5
2017-02-14T14:28:19.149Z,1034.5
2017-02-14T14:31:26.433Z,1034.5
2017-02-14T14:32:29.247Z,1034.5
2017-02-14T14:35:36.515Z,1034.5
2017-02-14T14:36:38.992Z,1034.5
2017-02-14T14:37:41.457Z,1034.5
2017-02-14T14:38:44.259Z,1034.5
2017-02-14T14:39:46.712Z,1034.6
2017-02-14T14:40:49.172Z,1034.5
2017-02-14T14:41:51.468Z,1034.5
2017-02-14T14:42:53.953Z,1034.5
2017-02-14T14:43:56.772Z,1034.5
2017-02-14T14:44:59.064Z,1034.5
2017-02-14T14:46:01.547Z,1034.5
2017-02-14T14:47:03.834Z,1034.5
2017-02-14T14:48:06.297Z,1034.5
2017-02-14T14:49:09.107Z,1034.5
2017-02-14T14:50:11.563Z,1034.5
2017-02-14T14:51:13.854Z,1034.5
2017-02-14T14:53:19.061Z,1034.5
2017-02-14T14:54:21.522Z,1034.5
2017-02-14T14:55:24.014Z,1034.5
2017-02-14T14:56:26.495Z,1034.5
2017-02-14T14:57:28.995Z,1034.5
2017-02-14T14:58:31.456Z,1034.5
2017-02-14T14:59:33.925Z,1034.5
2017-02-14T15:04:46.577Z,1034.5
2017-02-14T15:11:01.243Z,1034.4
2017-02-14T15:12:03.735Z,1034.4
2017-02-14T15:13:06.698Z,1034.4
2017-02-14T15:14:09.160Z,1034.4
2017-02-14T15:15:11.669Z,1034.2
2017-02-14T15:16:14.128Z,1034.4
2017-02-14T15:17:16.260Z,1034.2
2017-02-14T15:18:18.719Z,1034.4
2017-02-14T15:22:28.923Z,1034.2
2017-02-14T15:29:46.337Z,1034.4
2017-02-14T15:31:51.242Z,1034.4
2017-02-14T16:06:14.184Z,1034.4
2017-02-14T16:07:16.205Z,1034.4
2017-02-14T16:08:19.169Z,1034.4
2017-02-14T16:13:31.270Z,1034.2
2017-02-14T16:14:33.745Z,1034.2
2017-02-14T16:17:41.526Z,1034.2
2017-02-14T16:18:43.994Z,1034.2
2017-02-14T16:19:46.478Z,1034.2
2017-02-14T16:20:48.942Z,1034.2
2017-02-14T16:21:51.405Z,1034.2
2017-02-14T16:22:53.866Z,1034.2
2017-02-14T16:23:56.325Z,1034.2
2017-02-14T16:24:58.791Z,1034.2
2017-02-14T16:26:01.259Z,1034.2
2017-02-14T16:27:03.733Z,1034.2
2017-02-14T16:28:06.211Z,1034.2
2017-02-14T16:29:09.012Z,1034.2
2017-02-14T16:30:11.488Z,1034.2
2017-02-14T16:31:13.965Z,1034.2
2017-02-14T16:32:16.454Z,1034.2
2017-02-14T16:33:18.924Z,1034.2
2017-02-14T16:34:21.399Z,1034.4
2017-02-14T16:35:23.753Z,1034.4
2017-02-14T16:36:26.234Z,1034.4
2017-02-14T16:37:28.709Z,1034.4
2017-02-14T16:38:31.678Z,1034.4
2017-02-14T16:39:33.998Z,1034.4
2017-02-14T16:40:36.315Z,1034.4
2017-02-14T16:41:39.193Z,1034.4
2017-02-14T16:42:41.207Z,1034.4
2017-02-14T16:43:44.180Z,1034.4
2017-02-14T16:44:46.661Z,1034.4
2017-02-14T16:45:48.953Z,1034.4
2017-02-14T16:46:51.427Z,1034.4
2017-02-14T16:47:53.907Z,1034.4
2017-02-14T16:48:56.376Z,1034.4
2017-02-14T16:49:58.855Z,1034.4
2017-02-14T16:51:01.334Z,1034.4
2017-02-14T16:52:03.812Z,1034.4
2017-02-14T16:53:06.620Z,1034.4
2017-02-14T16:54:08.748Z,1034.4
2017-02-14T16:55:11.233Z,1034.4
2017-02-14T16:56:14.043Z,1034.4
2017-02-14T16:57:16.527Z,1034.4
2017-02-14T16:58:18.852Z,1034.4
2017-02-14T16:59:21.357Z,1034.4
2017-02-14T17:00:23.839Z,1034.5
2017-02-14T17:01:26.309Z,1034.4
2017-02-14T17:02:28.783Z,1034.5
2017-02-14T17:03:31.252Z,1034.4
2017-02-14T17:04:33.750Z,1034.5
2017-02-14T17:05:36.224Z,1034.5
2017-02-14T17:06:39.027Z,1034.5
2017-02-14T17:07:41.497Z,1034.5
2017-02-14T17:08:43.833Z,1034.5
2017-02-14T17:09:46.295Z,1034.5
2017-02-14T17:10:48.760Z,1034.5
2017-02-14T17:11:51.253Z,1034.5
2017-02-14T17:12:53.724Z,1034.4